Time,TemperatureF,DewpointF,PressureIn,WindDirection,WindDirectionDegrees,WindSpeedMPH,WindSpeedGustMPH,Humidity,HourlyPrecipIn,Conditions,Clouds,dailyrainin,SolarRadiationWatts/m^2,SoftwareType,DateUTC
2013-09-22 00:02:00,44.0,36.0,-100.00,WNW,298,3.0,5.0,72,0.00,,,0.00,1.000000,,2013-09-22 06:02:00,
2013-09-22 00:12:00,44.0,36.0,-100.00,WNW,298,3.0,5.0,72,0.00,,,0.00,1.000000,,2013-09-22 06:12:00,
2013-09-22 00:22:00,44.0,36.0,-100.00,WNW,298,3.0,5.0,72,0.00,,,0.00,1.000000,,2013-09-22 06:22:00,
2013-09-22 00:52:00,46.0,33.0,-100.00,WSW,252,3.0,6.0,60,0.00,,,0.00,1.000000,,2013-09-22 06:52:00,
2013-09-22 01:02:00,46.0,33.0,-100.00,WSW,252,3.0,6.0,60,0.00,,,0.00,1.000000,,2013-09-22 07:02:00,
2013-09-22 01:11:00,46.0,33.0,-100.00,WSW,252,3.0,6.0,60,0.00,,,0.00,1.000000,,2013-09-22 07:11:00,
2013-09-22 01:21:00,46.0,33.0,-100.00,WSW,252,3.0,6.0,60,0.00,,,0.00,1.000000,,2013-09-22 07:21:00,
2013-09-22 01:52:00,45.0,35.0,-100.00,NW,313,2.0,5.0,68,0.00,,,0.00,1.000000,,2013-09-22 07:52:00,
2013-09-22 02:04:00,45.0,35.0,-100.00,NW,313,2.0,5.0,68,0.00,,,0.00,1.000000,,2013-09-22 08:04:00,
2013-09-22 02:12:00,45.0,35.0,-100.00,NW,313,2.0,5.0,68,0.00,,,0.00,1.000000,,2013-09-22 08:12:00,
2013-09-22 02:22:00,45.0,35.0,-100.00,NW,313,2.0,5.0,68,0.00,,,0.00,1.000000,,2013-09-22 08:22:00,
2013-09-22 02:52:00,43.0,35.0,-100.00,West,265,2.0,5.0,74,0.00,,,0.00,1.000000,,2013-09-22 08:52:00,
2013-09-22 03:02:00,43.0,35.0,-100.00,West,265,2.0,5.0,74,0.00,,,0.00,1.000000,,2013-09-22 09:02:00,
2013-09-22 03:11:00,43.0,35.0,-100.00,West,265,2.0,5.0,74,0.00,,,0.00,1.000000,,2013-09-22 09:11:00,
2013-09-22 03:21:00,43.0,35.0,-100.00,West,265,2.0,5.0,74,0.00,,,0.00,1.000000,,2013-09-22 09:21:00,
2013-09-22 03:54:00,43.0,36.0,-100.00,West,280,2.0,9.0,77,0.00,,,0.00,1.000000,,2013-09-22 09:54:00,
2013-09-22 04:03:00,43.0,36.0,-100.00,West,280,2.0,9.0,77,0.00,,,0.00,1.000000,,2013-09-22 10:03:00,
2013-09-22 04:12:00,43.0,36.0,-100.00,West,280,2.0,9.0,77,0.00,,,0.00,1.000000,,2013-09-22 10:12:00,
2013-09-22 04:23:00,43.0,36.0,-100.00,West,280,2.0,9.0,77,0.00,,,0.00,1.000000,,2013-09-22 10:23:00,
2013-09-22 04:53:00,44.0,37.0,-100.00,NW,307,3.0,10.0,75,0.00,,,0.00,1.000000,,2013-09-22 10:53:00,
2013-09-22 05:12:00,44.0,37.0,-100.00,NW,307,3.0,10.0,75,0.00,,,0.00,1.000000,,2013-09-22 11:12:00,
2013-09-22 05:22:00,44.0,37.0,-100.00,NW,307,3.0,10.0,75,0.00,,,0.00,1.000000,,2013-09-22 11:22:00,
2013-09-22 05:52:00,46.0,37.0,-100.00,NNW,335,3.0,6.0,71,0.00,,,0.00,1.000000,,2013-09-22 11:52:00,
2013-09-22 06:02:00,46.0,37.0,-100.00,NNW,335,3.0,6.0,71,0.00,,,0.00,1.000000,,2013-09-22 12:02:00,
2013-09-22 06:12:00,46.0,37.0,-100.00,NNW,335,3.0,6.0,71,0.00,,,0.00,1.000000,,2013-09-22 12:12:00,
2013-09-22 06:22:00,46.0,37.0,-100.00,NNW,335,3.0,6.0,71,0.00,,,0.00,1.000000,,2013-09-22 12:22:00,
2013-09-22 06:52:00,52.0,35.0,-100.00,WSW,249,5.0,9.0,53,0.00,,,0.00,1.000000,,2013-09-22 12:52:00,
2013-09-22 07:02:00,52.0,35.0,-100.00,WSW,249,5.0,9.0,53,0.00,,,0.00,1.000000,,2013-09-22 13:02:00,
2013-09-22 07:12:00,52.0,35.0,-100.00,WSW,249,5.0,9.0,53,0.00,,,0.00,1.000000,,2013-09-22 13:12:00,
2013-09-22 07:22:00,52.0,35.0,-100.00,WSW,249,5.0,9.0,53,0.00,,,0.00,1.000000,,2013-09-22 13:22:00,
2013-09-22 08:52:00,61.0,38.0,-100.00,SSW,194,4.0,17.0,43,-99.99,,,0.00,79.000000,,2013-09-22 14:52:00,
2013-09-22 09:02:00,61.0,38.0,-100.00,SSW,194,4.0,17.0,43,-99.99,,,0.00,79.000000,,2013-09-22 15:02:00,
2013-09-22 09:12:00,61.0,38.0,-100.00,SSW,194,4.0,17.0,43,-99.99,,,0.00,79.000000,,2013-09-22 15:12:00,
2013-09-22 09:23:00,61.0,38.0,-100.00,SSW,194,4.0,17.0,43,-99.99,,,0.00,79.000000,,2013-09-22 15:23:00,
2013-09-22 09:24:00,62.0,38.0,-100.00,West,259,8.0,19.0,41,0.00,,,0.00,241.000000,,2013-09-22 15:24:00,
2013-09-22 09:55:00,62.0,38.0,-100.00,West,259,8.0,19.0,41,0.00,,,0.00,241.000000,,2013-09-22 15:55:00,
2013-09-22 10:04:00,62.0,38.0,-100.00,West,259,8.0,19.0,41,0.00,,,0.00,241.000000,,2013-09-22 16:04:00,
2013-09-22 10:13:00,62.0,38.0,-100.00,West,259,8.0,19.0,41,0.00,,,0.00,241.000000,,2013-09-22 16:13:00,
2013-09-22 10:54:00,59.0,39.0,-100.00,West,265,7.0,22.0,48,0.00,,,0.00,137.000000,,2013-09-22 16:54:00,
2013-09-22 11:04:00,59.0,39.0,-100.00,West,265,7.0,22.0,48,0.00,,,0.00,137.000000,,2013-09-22 17:04:00,
2013-09-22 11:12:00,59.0,39.0,-100.00,West,265,7.0,22.0,48,0.00,,,0.00,137.000000,,2013-09-22 17:12:00,
2013-09-22 11:23:00,59.0,39.0,-100.00,West,265,7.0,22.0,48,0.00,,,0.00,137.000000,,2013-09-22 17:23:00,
2013-09-22 11:53:00,60.0,38.0,-100.00,WSW,257,10.0,20.0,44,0.00,,,0.00,265.000000,,2013-09-22 17:53:00,
2013-09-22 12:02:00,60.0,38.0,-100.00,WSW,257,10.0,20.0,44,0.00,,,0.00,265.000000,,2013-09-22 18:02:00,
2013-09-22 12:13:00,60.0,38.0,-100.00,WSW,257,10.0,20.0,44,0.00,,,0.00,265.000000,,2013-09-22 18:13:00,
2013-09-22 12:22:00,60.0,38.0,-100.00,WSW,257,10.0,20.0,44,0.00,,,0.00,265.000000,,2013-09-22 18:22:00,
2013-09-22 12:52:00,51.0,42.0,-100.00,West,273,9.0,25.0,71,0.00,,,0.00,135.000000,,2013-09-22 18:52:00,
2013-09-22 13:02:00,51.0,42.0,-100.00,West,273,9.0,25.0,71,0.00,,,0.00,135.000000,,2013-09-22 19:02:00,
2013-09-22 13:11:00,51.0,42.0,-100.00,West,273,9.0,25.0,71,0.00,,,0.00,135.000000,,2013-09-22 19:11:00,
2013-09-22 13:22:00,51.0,42.0,-100.00,West,273,9.0,25.0,71,0.00,,,0.00,135.000000,,2013-09-22 19:22:00,
2013-09-22 13:52:00,55.0,42.0,-100.00,WNW,299,3.0,17.0,61,0.00,,,0.00,204.000000,,2013-09-22 19:52:00,
2013-09-22 14:03:00,55.0,42.0,-100.00,WNW,299,3.0,17.0,61,0.00,,,0.00,204.000000,,2013-09-22 20:03:00,
2013-09-22 14:12:00,55.0,42.0,-100.00,WNW,299,3.0,17.0,61,0.00,,,0.00,204.000000,,2013-09-22 20:12:00,
2013-09-22 14:22:00,55.0,42.0,-100.00,WNW,299,3.0,17.0,61,0.00,,,0.00,204.000000,,2013-09-22 20:22:00,
2013-09-22 14:52:00,62.0,42.0,-100.00,WNW,288,2.0,6.0,47,0.00,,,0.00,312.000000,,2013-09-22 20:52:00,
2013-09-22 15:02:00,62.0,42.0,-100.00,WNW,288,2.0,6.0,47,0.00,,,0.00,312.000000,,2013-09-22 21:02:00,
2013-09-22 15:12:00,62.0,42.0,-100.00,WNW,288,2.0,6.0,47,0.00,,,0.00,312.000000,,2013-09-22 21:12:00,
2013-09-22 15:23:00,62.0,42.0,-100.00,WNW,288,2.0,6.0,47,0.00,,,0.00,312.000000,,2013-09-22 21:23:00,
2013-09-22 15:24:00,60.0,42.0,-100.00,NE,38,1.0,7.0,52,0.00,,,0.00,281.000000,,2013-09-22 21:24:00,
2013-09-22 15:54:00,60.0,42.0,-100.00,NE,38,1.0,7.0,52,0.00,,,0.00,281.000000,,2013-09-22 21:54:00,
2013-09-22 16:04:00,60.0,42.0,-100.00,NE,38,1.0,7.0,52,0.00,,,0.00,281.000000,,2013-09-22 22:04:00,
2013-09-22 16:14:00,60.0,42.0,-100.00,NE,38,1.0,7.0,52,0.00,,,0.00,281.000000,,2013-09-22 22:14:00,
2013-09-22 16:54:00,55.0,45.0,-100.00,SSW,212,4.0,12.0,68,0.01,,,0.01,100.000000,,2013-09-22 22:54:00,
2013-09-22 17:03:00,55.0,45.0,-100.00,SSW,212,4.0,12.0,68,0.01,,,0.01,100.000000,,2013-09-22 23:03:00,
2013-09-22 17:12:00,55.0,45.0,-100.00,SSW,212,4.0,12.0,68,0.01,,,0.01,100.000000,,2013-09-22 23:12:00,
2013-09-22 17:22:00,55.0,45.0,-100.00,SSW,212,4.0,12.0,68,0.01,,,0.01,100.000000,,2013-09-22 23:22:00,
2013-09-22 17:52:00,47.0,41.0,-100.00,West,263,11.0,25.0,79,0.06,,,0.07,24.000000,,2013-09-22 23:52:00,
2013-09-22 18:01:00,47.0,41.0,-100.00,West,263,11.0,25.0,79,0.06,,,0.07,24.000000,,2013-09-23 00:01:00,
2013-09-22 18:12:00,47.0,41.0,-100.00,West,263,11.0,25.0,79,0.06,,,0.07,24.000000,,2013-09-23 00:12:00,
2013-09-22 18:23:00,47.0,41.0,-100.00,West,263,11.0,25.0,79,0.06,,,0.07,24.000000,,2013-09-23 00:23:00,
2013-09-22 18:53:00,46.0,42.0,-100.00,SW,233,5.0,17.0,85,0.04,,,0.11,17.000000,,2013-09-23 00:53:00,
2013-09-22 19:01:00,46.0,42.0,-100.00,SW,233,5.0,17.0,85,0.04,,,0.11,17.000000,,2013-09-23 01:01:00,
2013-09-22 19:12:00,46.0,42.0,-100.00,SW,233,5.0,17.0,85,0.04,,,0.11,17.000000,,2013-09-23 01:12:00,
2013-09-22 19:22:00,46.0,42.0,-100.00,SW,233,5.0,17.0,85,0.04,,,0.11,17.000000,,2013-09-23 01:22:00,
2013-09-22 19:52:00,46.0,43.0,-100.00,NNW,332,1.0,8.0,90,0.05,,,0.16,6.000000,,2013-09-23 01:52:00,
2013-09-22 20:02:00,46.0,43.0,-100.00,NNW,332,1.0,8.0,90,0.05,,,0.16,6.000000,,2013-09-23 02:02:00,
2013-09-22 20:11:00,46.0,43.0,-100.00,NNW,332,1.0,8.0,90,0.05,,,0.16,6.000000,,2013-09-23 02:11:00,
2013-09-22 20:22:00,46.0,43.0,-100.00,NNW,332,1.0,8.0,90,0.05,,,0.16,6.000000,,2013-09-23 02:22:00,
2013-09-22 20:52:00,45.0,43.0,-100.00,NW,307,1.0,4.0,93,0.00,,,0.16,1.000000,,2013-09-23 02:52:00,
2013-09-22 21:03:00,45.0,43.0,-100.00,NW,307,1.0,4.0,93,0.00,,,0.16,1.000000,,2013-09-23 03:03:00,
2013-09-22 21:12:00,45.0,43.0,-100.00,NW,307,1.0,4.0,93,0.00,,,0.16,1.000000,,2013-09-23 03:12:00,
2013-09-22 21:22:00,45.0,43.0,-100.00,NW,307,1.0,4.0,93,0.00,,,0.16,1.000000,,2013-09-23 03:22:00,
2013-09-22 21:24:00,45.0,44.0,-100.00,WNW,282,0.0,5.0,95,0.00,,,0.16,1.000000,,2013-09-23 03:24:00,
2013-09-22 21:54:00,45.0,44.0,-100.00,WNW,282,0.0,5.0,95,0.00,,,0.16,1.000000,,2013-09-23 03:54:00,
2013-09-22 22:05:00,45.0,44.0,-100.00,WNW,282,0.0,5.0,95,0.00,,,0.16,1.000000,,2013-09-23 04:05:00,
2013-09-22 22:14:00,45.0,44.0,-100.00,WNW,282,0.0,5.0,95,0.00,,,0.16,1.000000,,2013-09-23 04:14:00,
2013-09-22 22:54:00,45.0,44.0,-100.00,WNW,282,2.0,5.0,96,0.00,,,0.16,1.000000,,2013-09-23 04:54:00,
2013-09-22 23:03:00,45.0,44.0,-100.00,WNW,282,2.0,5.0,96,0.00,,,0.16,1.000000,,2013-09-23 05:03:00,
2013-09-22 23:12:00,45.0,44.0,-100.00,WNW,282,2.0,5.0,96,0.00,,,0.16,1.000000,,2013-09-23 05:12:00,
2013-09-22 23:22:00,45.0,44.0,-100.00,WNW,282,2.0,5.0,96,0.00,,,0.16,1.000000,,2013-09-23 05:22:00,
2013-09-22 23:53:00,47.0,40.0,-100.00,SW,227,6.0,14.0,77,0.00,,,0.16,1.000000,,2013-09-23 05:53:00,